Time;durP1;ratioP1;P1;durP2;ratioP2;P2;SDS_P1;SDS_P2;PMS_P1;PMS_P2;Temp;Humidity;BMP_temperature;BMP_pressure;BME280_temperature;BME280_humidity;BME280_pressure;Samples;Min_cycle;Max_cycle;Signal;HPM_P1;HPM_P2
2023/09/09 00:01:51;;;;;;;7.80;7.10;;;23.00;61.60;;;;;;5053992;28;20196;-80
2023/09/09 00:04:20;;;;;;;7.68;7.00;;;23.00;61.40;;;;;;5053972;28;20191;-80
2023/09/09 00:06:47;;;;;;;8.02;7.22;;;23.00;61.70;;;;;;5060306;28;20230;-81
2023/09/09 00:09:15;;;;;;;8.25;7.45;;;23.00;61.60;;;;;;5066503;28;20644;-81
2023/09/09 00:11:42;;;;;;;7.65;6.95;;;23.00;61.50;;;;;;5069135;28;20254;-80
2023/09/09 00:14:09;;;;;;;7.53;6.93;;;23.00;61.60;;;;;;5055718;28;20252;-80
2023/09/09 00:16:36;;;;;;;8.52;7.60;;;23.00;61.60;;;;;;5055353;28;20191;-80
2023/09/09 00:19:04;;;;;;;8.35;7.55;;;23.00;62.40;;;;;;5055621;28;20230;-80
2023/09/09 00:21:32;;;;;;;7.90;7.20;;;22.90;61.50;;;;;;5056531;28;20500;-80
2023/09/09 00:24:00;;;;;;;8.10;7.30;;;23.00;61.60;;;;;;5055176;28;20199;-80
2023/09/09 00:26:28;;;;;;;8.32;7.40;;;23.00;61.60;;;;;;5054826;28;20210;-81
2023/09/09 00:28:56;;;;;;;9.15;7.50;;;22.90;61.60;;;;;;5053328;28;20218;-81
2023/09/09 00:31:23;;;;;;;7.45;6.75;;;22.90;61.60;;;;;;5053213;28;20239;-80
2023/09/09 00:33:50;;;;;;;7.57;6.88;;;22.90;61.60;;;;;;5053671;28;20199;-80
2023/09/09 00:36:17;;;;;;;7.78;7.07;;;22.90;61.60;;;;;;5054003;28;20717;-80
2023/09/09 00:38:46;;;;;;;7.97;7.30;;;22.90;61.60;;;;;;5053484;28;20207;-80
2023/09/09 00:41:14;;;;;;;8.10;7.40;;;23.00;61.70;;;;;;5053799;28;20187;-80
2023/09/09 00:43:43;;;;;;;8.15;7.40;;;22.90;61.60;;;;;;5053847;28;20537;-80
2023/09/09 00:46:11;;;;;;;8.52;7.72;;;22.90;61.60;;;;;;5054632;28;20218;-80
2023/09/09 00:48:38;;;;;;;8.60;7.72;;;22.80;61.60;;;;;;5054163;28;20295;-81
2023/09/09 00:51:06;;;;;;;7.65;6.95;;;22.80;61.50;;;;;;5053650;28;20210;-80
2023/09/09 00:53:33;;;;;;;7.90;7.22;;;22.80;61.50;;;;;;5053177;28;20225;-80
2023/09/09 00:56:02;;;;;;;8.05;7.25;;;22.80;61.50;;;;;;5053510;28;20203;-80
2023/09/09 00:58:30;;;;;;;9.38;8.48;;;22.80;61.50;;;;;;5053644;28;20223;-80
2023/09/09 01:00:58;;;;;;;8.27;7.47;;;22.80;61.50;;;;;;5053199;28;20223;-80
2023/09/09 01:03:24;;;;;;;8.20;7.50;;;22.70;61.50;;;;;;5054127;28;20191;-80
2023/09/09 01:05:52;;;;;;;8.18;7.47;;;22.70;61.50;;;;;;5036359;28;20234;-80
2023/09/09 01:08:26;;;;;;;7.47;6.82;;;22.80;61.50;;;;;;5053103;28;20282;-80
2023/09/09 01:10:53;;;;;;;8.45;7.65;;;22.80;61.50;;;;;;5052905;28;20230;-80
2023/09/09 01:13:22;;;;;;;7.97;7.28;;;22.70;61.50;;;;;;5053160;28;20227;-80
2023/09/09 01:15:49;;;;;;;8.43;7.63;;;22.80;61.50;;;;;;5053429;28;20201;-80
2023/09/09 01:18:17;;;;;;;8.20;7.47;;;22.70;61.40;;;;;;5053147;28;20707;-80
2023/09/09 01:20:46;;;;;;;8.10;7.40;;;22.70;61.40;;;;;;5053078;28;20226;-80
2023/09/09 01:23:15;;;;;;;8.20;7.50;;;22.70;61.40;;;;;;5053433;28;20231;-80
2023/09/09 01:25:41;;;;;;;8.55;7.85;;;22.70;61.40;;;;;;5053155;28;20542;-80
2023/09/09 01:28:09;;;;;;;8.18;7.38;;;22.70;61.40;;;;;;5054971;28;20211;-80
2023/09/09 01:30:36;;;;;;;8.88;7.97;;;22.70;61.40;;;;;;5056450;28;20219;-80
2023/09/09 01:33:04;;;;;;;8.23;7.53;;;22.70;61.30;;;;;;5057020;28;20246;-80
2023/09/09 01:35:31;;;;;;;8.73;7.90;;;22.70;61.40;;;;;;5057998;28;20198;-80
2023/09/09 01:37:59;;;;;;;8.18;7.47;;;22.70;61.30;;;;;;5056154;28;20249;-80
2023/09/09 01:40:27;;;;;;;8.57;7.78;;;22.70;61.40;;;;;;5055893;28;20316;-80
2023/09/09 01:42:55;;;;;;;8.40;7.60;;;22.60;61.20;;;;;;5055791;28;20184;-80
2023/09/09 01:45:22;;;;;;;7.97;7.28;;;22.60;61.20;;;;;;5056252;28;20205;-80
2023/09/09 01:47:49;;;;;;;8.68;7.90;;;22.60;61.20;;;;;;5055995;28;20208;-80
2023/09/09 01:50:16;;;;;;;7.70;7.10;;;22.60;61.00;;;;;;5055612;28;20219;-80
2023/09/09 01:52:43;;;;;;;8.02;7.32;;;22.60;61.20;;;;;;5055638;28;20230;-80
2023/09/09 01:55:11;;;;;;;8.18;7.47;;;22.60;61.20;;;;;;5055979;28;20203;-80
2023/09/09 01:57:40;;;;;;;8.50;7.75;;;22.60;61.20;;;;;;5055758;28;20616;-80
2023/09/09 02:00:09;;;;;;;7.97;7.20;;;22.60;61.20;;;;;;5055873;28;20281;-80
2023/09/09 02:02:43;;;;;;;8.23;7.43;;;22.60;61.20;;;;;;5056220;28;20195;-80
2023/09/09 02:05:11;;;;;;;8.15;7.45;;;22.50;61.00;;;;;;5056731;28;20309;-80
2023/09/09 02:07:38;;;;;;;8.23;7.53;;;22.60;61.20;;;;;;5055735;28;20714;-80
2023/09/09 02:10:07;;;;;;;7.97;7.25;;;22.50;61.10;;;;;;5055998;28;20230;-80
2023/09/09 02:12:34;;;;;;;7.75;6.95;;;22.50;61.00;;;;;;5056200;28;20227;-80
2023/09/09 02:15:02;;;;;;;8.18;7.47;;;22.50;61.00;;;;;;5057345;28;20669;-81
2023/09/09 02:17:34;;;;;;;8.63;7.82;;;22.50;61.10;;;;;;5057342;28;20204;-80
2023/09/09 02:20:01;;;;;;;8.35;7.50;;;22.50;61.10;;;;;;5058474;28;20231;-80
2023/09/09 02:22:28;;;;;;;8.70;7.40;;;22.50;60.80;;;;;;5055615;28;20198;-80
2023/09/09 02:24:56;;;;;;;8.13;7.32;;;22.50;61.00;;;;;;5057524;28;20202;-80
2023/09/09 02:27:23;;;;;;;8.05;7.35;;;22.50;60.90;;;;;;5055936;28;20237;-80
2023/09/09 02:29:50;;;;;;;8.20;7.50;;;22.50;61.00;;;;;;5055458;28;20226;-80
2023/09/09 02:32:18;;;;;;;8.05;7.35;;;22.50;61.10;;;;;;5055540;28;20215;-80
2023/09/09 02:34:46;;;;;;;7.97;7.28;;;22.40;61.00;;;;;;5055496;28;20210;-80
2023/09/09 02:37:16;;;;;;;7.40;6.70;;;22.40;61.00;;;;;;5055770;28;20230;-80
2023/09/09 02:39:44;;;;;;;7.40;6.80;;;22.40;61.00;;;;;;5055280;28;20591;-80
2023/09/09 02:42:13;;;;;;;8.05;7.35;;;22.40;60.80;;;;;;5056482;28;20234;-81
2023/09/09 02:44:41;;;;;;;7.68;7.00;;;22.40;61.00;;;;;;5058198;28;20278;-81
2023/09/09 02:47:07;;;;;;;8.10;7.35;;;22.40;60.70;;;;;;5062318;28;20209;-81
2023/09/09 02:49:36;;;;;;;8.15;7.35;;;22.40;60.70;;;;;;5063360;28;20226;-81
2023/09/09 02:52:04;;;;;;;8.15;7.32;;;22.40;60.70;;;;;;5064168;28;20212;-81
2023/09/09 02:54:32;;;;;;;8.25;7.55;;;22.40;60.70;;;;;;5065489;28;20237;-81
2023/09/09 02:56:59;;;;;;;8.13;7.43;;;22.40;60.70;;;;;;5065217;28;20214;-81
2023/09/09 02:59:27;;;;;;;8.20;7.40;;;22.40;61.00;;;;;;5065848;28;20732;-81
2023/09/09 03:01:54;;;;;;;8.00;7.30;;;22.40;60.80;;;;;;5065887;28;20200;-81
2023/09/09 03:04:21;;;;;;;7.72;7.13;;;22.30;60.70;;;;;;5066893;28;20202;-81
2023/09/09 03:06:50;;;;;;;7.65;7.05;;;22.40;60.80;;;;;;5066945;28;20195;-81
2023/09/09 03:09:17;;;;;;;8.00;7.20;;;22.40;60.90;;;;;;5066350;28;20226;-81
2023/09/09 03:11:44;;;;;;;8.10;7.40;;;22.40;60.80;;;;;;5066725;28;20219;-81
2023/09/09 03:14:11;;;;;;;9.02;7.45;;;22.40;61.00;;;;;;5067056;28;20222;-81
2023/09/09 03:16:38;;;;;;;8.30;7.50;;;22.40;61.00;;;;;;5065238;28;20218;-80
2023/09/09 03:19:06;;;;;;;7.45;6.75;;;22.30;60.80;;;;;;5055559;28;20219;-80
2023/09/09 03:21:33;;;;;;;7.60;6.90;;;22.40;61.00;;;;;;5055481;28;20230;-81
2023/09/09 03:24:01;;;;;;;7.70;7.00;;;22.40;60.50;;;;;;5057211;28;20200;-80
2023/09/09 03:26:31;;;;;;;8.00;7.30;;;22.40;60.60;;;;;;5065023;28;20207;-81
2023/09/09 03:28:59;;;;;;;7.40;6.70;;;22.50;60.40;;;;;;5065490;28;20546;-80
2023/09/09 03:31:26;;;;;;;7.90;7.20;;;22.60;60.10;;;;;;5065268;28;20210;-81
2023/09/09 03:33:54;;;;;;;8.15;7.45;;;22.60;59.70;;;;;;5066008;28;20320;-81
2023/09/09 03:36:21;;;;;;;8.43;7.32;;;22.70;59.60;;;;;;5065994;28;20199;-81
2023/09/09 03:38:48;;;;;;;8.07;7.28;;;22.70;59.60;;;;;;5066264;28;20199;-81
2023/09/09 03:41:16;;;;;;;7.70;7.00;;;22.70;59.60;;;;;;5066367;28;20195;-80
2023/09/09 03:43:44;;;;;;;8.02;6.70;;;22.80;59.40;;;;;;5066520;28;20226;-81
2023/09/09 03:46:11;;;;;;;9.43;7.18;;;22.90;59.30;;;;;;5066329;28;20203;-81
2023/09/09 03:48:38;;;;;;;8.20;7.35;;;22.90;59.10;;;;;;5067046;28;20249;-81
2023/09/09 03:51:05;;;;;;;7.03;6.32;;;22.90;58.90;;;;;;5066775;28;20196;-81
2023/09/09 03:53:33;;;;;;;7.57;6.55;;;23.00;59.00;;;;;;5065860;28;20223;-81
2023/09/09 03:56:01;;;;;;;7.45;6.75;;;22.90;58.80;;;;;;5066246;28;20195;-80
2023/09/09 03:58:30;;;;;;;7.60;6.90;;;22.90;58.80;;;;;;5065541;28;20196;-81
2023/09/09 04:01:05;;;;;;;7.28;6.68;;;22.90;58.70;;;;;;5049066;28;20297;-81
2023/09/09 04:03:34;;;;;;;6.50;6.00;;;22.90;58.60;;;;;;5065645;28;20634;-81
2023/09/09 04:06:06;;;;;;;7.60;6.90;;;22.90;58.60;;;;;;5065973;28;20223;-81
2023/09/09 04:08:33;;;;;;;7.38;6.70;;;23.00;58.70;;;;;;5066024;28;20624;-81
2023/09/09 04:11:02;;;;;;;7.35;6.75;;;22.90;58.50;;;;;;5061775;28;20228;-81
2023/09/09 04:13:32;;;;;;;7.50;6.80;;;22.90;58.60;;;;;;5040350;28;20298;-80
2023/09/09 04:15:59;;;;;;;7.75;6.95;;;22.90;58.70;;;;;;5056604;28;20278;-80
2023/09/09 04:18:28;;;;;;;7.72;7.03;;;22.90;58.60;;;;;;5055223;28;20195;-80
2023/09/09 04:20:55;;;;;;;8.32;7.47;;;22.90;58.60;;;;;;5056178;28;20682;-81
2023/09/09 04:23:24;;;;;;;7.70;7.00;;;22.80;58.60;;;;;;5062186;28;20282;-81
2023/09/09 04:25:53;;;;;;;7.47;6.82;;;22.80;58.80;;;;;;5047503;28;20286;-82
2023/09/09 04:28:20;;;;;;;7.15;6.55;;;22.70;58.80;;;;;;5059625;28;20195;-81
2023/09/09 04:30:49;;;;;;;7.20;6.50;;;22.70;58.90;;;;;;5059506;28;20281;-82
2023/09/09 04:33:16;;;;;;;7.20;6.60;;;22.60;58.90;;;;;;5059959;28;20253;-82
2023/09/09 04:35:45;;;;;;;8.18;7.45;;;22.60;58.90;;;;;;5060028;28;20195;-82
2023/09/09 04:38:13;;;;;;;7.35;6.65;;;22.60;58.90;;;;;;5059047;28;20271;-82
2023/09/09 04:40:42;;;;;;;7.75;6.95;;;22.50;58.90;;;;;;5059218;28;20589;-82
2023/09/09 04:43:10;;;;;;;7.90;7.20;;;22.50;59.10;;;;;;5059366;28;20195;-82
2023/09/09 04:45:38;;;;;;;7.63;6.93;;;22.50;59.20;;;;;;5059491;28;20195;-82
2023/09/09 04:48:07;;;;;;;7.57;6.88;;;22.50;59.20;;;;;;5058895;28;20199;-82
2023/09/09 04:50:34;;;;;;;8.18;7.38;;;22.50;59.30;;;;;;5057566;28;20211;-81
2023/09/09 04:53:02;;;;;;;7.45;6.75;;;22.50;59.40;;;;;;5041238;28;20222;-81
2023/09/09 04:55:29;;;;;;;7.03;6.43;;;22.50;59.30;;;;;;5056095;28;20249;-82
2023/09/09 04:57:58;;;;;;;7.28;6.68;;;22.40;59.30;;;;;;5037859;28;20199;-82
2023/09/09 05:00:25;;;;;;;7.75;7.03;;;22.40;59.90;;;;;;5054800;28;20781;-82
2023/09/09 05:02:53;;;;;;;7.55;6.88;;;22.40;59.40;;;;;;5059422;28;20229;-82
2023/09/09 05:05:23;;;;;;;7.57;6.97;;;22.40;59.40;;;;;;5059132;28;20680;-81
2023/09/09 05:07:49;;;;;;;8.25;7.45;;;22.40;59.50;;;;;;5058713;28;20199;-81
2023/09/09 05:10:18;;;;;;;7.97;7.18;;;22.40;59.40;;;;;;5058967;28;20219;-82
2023/09/09 05:12:45;;;;;;;8.82;7.03;;;22.30;59.20;;;;;;5058941;28;20235;-81
2023/09/09 05:15:13;;;;;;;7.78;7.00;;;22.30;59.50;;;;;;5061407;28;20291;-81
2023/09/09 05:17:41;;;;;;;8.18;7.07;;;22.40;59.50;;;;;;5063914;28;20658;-81
2023/09/09 05:20:11;;;;;;;8.13;7.32;;;22.30;59.50;;;;;;5064232;28;20231;-81
2023/09/09 05:22:40;;;;;;;7.80;7.10;;;22.30;59.50;;;;;;5063090;28;20196;-81
2023/09/09 05:25:07;;;;;;;8.65;7.57;;;22.30;59.60;;;;;;5064132;28;20207;-82
2023/09/09 05:27:35;;;;;;;7.40;6.70;;;22.30;59.60;;;;;;5063731;28;20196;-81
2023/09/09 05:30:02;;;;;;;7.72;7.13;;;22.30;59.60;;;;;;5064109;28;20222;-82
2023/09/09 05:32:30;;;;;;;7.80;7.10;;;22.30;59.60;;;;;;5063806;28;20220;-82
2023/09/09 05:34:57;;;;;;;7.30;6.70;;;22.30;59.60;;;;;;5064381;28;20213;-82
2023/09/09 05:37:26;;;;;;;7.90;7.20;;;22.30;59.50;;;;;;5064355;28;20198;-82
2023/09/09 05:39:57;;;;;;;7.50;6.80;;;22.30;59.50;;;;;;5064403;28;20219;-82
2023/09/09 05:42:24;;;;;;;7.90;7.10;;;22.30;59.50;;;;;;5064510;28;20257;-82
2023/09/09 05:44:51;;;;;;;8.25;7.55;;;22.40;59.70;;;;;;5063642;28;20195;-83
2023/09/09 05:47:19;;;;;;;8.35;7.50;;;22.30;59.60;;;;;;5063920;28;20195;-82
2023/09/09 05:49:46;;;;;;;7.38;6.78;;;22.40;59.70;;;;;;5063769;28;20269;-82
2023/09/09 05:52:13;;;;;;;8.07;7.38;;;22.40;59.50;;;;;;5064909;28;20195;-81
2023/09/09 05:54:43;;;;;;;7.40;6.78;;;22.40;59.50;;;;;;5047597;28;20218;-82
2023/09/09 05:57:11;;;;;;;7.85;7.03;;;22.50;59.40;;;;;;5064660;28;20566;-81
2023/09/09 05:59:39;;;;;;;7.60;6.90;;;22.50;59.40;;;;;;5065325;28;20751;-81
2023/09/09 06:02:07;;;;;;;7.78;7.07;;;22.60;59.40;;;;;;5065183;28;20199;-80
2023/09/09 06:04:35;;;;;;;7.18;6.47;;;22.60;59.50;;;;;;5063251;28;20192;-81
2023/09/09 06:07:02;;;;;;;7.28;6.65;;;22.60;59.40;;;;;;5063810;28;20199;-81
2023/09/09 06:09:30;;;;;;;7.53;6.93;;;22.60;59.30;;;;;;5059042;28;20211;-81
2023/09/09 06:11:58;;;;;;;7.90;7.20;;;22.70;59.40;;;;;;5063281;28;20206;-81
2023/09/09 06:14:26;;;;;;;8.10;7.30;;;22.60;59.30;;;;;;5056549;28;20219;-81
2023/09/09 06:16:53;;;;;;;7.57;6.95;;;22.70;59.50;;;;;;5056225;28;20245;-81
2023/09/09 06:19:20;;;;;;;7.40;6.80;;;22.70;59.50;;;;;;5055899;28;20302;-80
2023/09/09 06:21:48;;;;;;;7.82;7.20;;;22.80;59.50;;;;;;5047485;28;20210;-81
2023/09/09 06:24:15;;;;;;;7.80;7.10;;;22.90;59.30;;;;;;5049858;28;20219;-81
2023/09/09 06:26:43;;;;;;;7.90;7.10;;;23.00;59.00;;;;;;5055716;28;20249;-81
2023/09/09 06:29:11;;;;;;;7.63;6.95;;;23.20;59.40;;;;;;5055969;28;20554;-81
2023/09/09 06:31:39;;;;;;;7.55;6.85;;;23.40;58.70;;;;;;5055553;28;20222;-80
2023/09/09 06:34:06;;;;;;;7.60;6.90;;;23.40;58.40;;;;;;5055525;28;20219;-80
2023/09/09 06:36:34;;;;;;;7.18;6.50;;;23.60;58.30;;;;;;5039318;28;20690;-81
2023/09/09 06:39:03;;;;;;;6.40;5.80;;;23.70;58.00;;;;;;5055842;28;20232;-81
2023/09/09 06:41:30;;;;;;;7.90;7.20;;;23.90;57.70;;;;;;5040195;28;20195;-80
2023/09/09 06:43:57;;;;;;;7.70;7.10;;;24.00;57.40;;;;;;5055238;28;20669;-80
2023/09/09 06:46:24;;;;;;;6.93;6.43;;;24.20;57.20;;;;;;5055087;28;20196;-80
2023/09/09 06:48:53;;;;;;;7.15;6.55;;;24.30;57.00;;;;;;5054943;28;20204;-81
2023/09/09 06:51:20;;;;;;;8.00;7.30;;;24.40;56.80;;;;;;5054920;28;20210;-80
2023/09/09 06:53:47;;;;;;;8.00;7.30;;;24.60;56.70;;;;;;5054591;28;20616;-79
2023/09/09 06:56:14;;;;;;;7.90;7.20;;;24.70;56.40;;;;;;5056145;28;20200;-78
2023/09/09 06:58:42;;;;;;;7.40;6.80;;;24.80;56.20;;;;;;5053526;28;20203;-80
2023/09/09 07:01:08;;;;;;;7.65;7.00;;;24.90;56.10;;;;;;5044322;28;20212;-80
2023/09/09 07:03:35;;;;;;;7.35;6.75;;;25.00;55.80;;;;;;5054116;28;20191;-80
2023/09/09 07:06:04;;;;;;;7.57;6.97;;;25.00;55.60;;;;;;5054415;28;20210;-79
2023/09/09 07:08:31;;;;;;;7.53;6.93;;;25.10;55.30;;;;;;5054174;28;20253;-79
2023/09/09 07:10:57;;;;;;;7.15;6.55;;;25.20;55.10;;;;;;5054190;28;20316;-79
2023/09/09 07:13:24;;;;;;;8.05;7.30;;;25.20;55.10;;;;;;5055139;28;20214;-79
2023/09/09 07:15:52;;;;;;;9.70;8.70;;;25.40;55.30;;;;;;5054126;28;20199;-79
2023/09/09 07:18:20;;;;;;;9.40;8.50;;;25.40;56.70;;;;;;5053789;28;20199;-79
2023/09/09 07:20:48;;;;;;;10.32;9.32;;;25.30;57.10;;;;;;5053854;28;20219;-79
2023/09/09 07:23:16;;;;;;;10.10;8.77;;;25.40;57.00;;;;;;5054994;28;20180;-78
2023/09/09 07:25:44;;;;;;;9.70;8.80;;;25.40;57.30;;;;;;5052648;28;20207;-79
2023/09/09 07:28:12;;;;;;;10.63;9.30;;;25.50;57.00;;;;;;5053777;28;20290;-79
2023/09/09 07:30:39;;;;;;;10.13;9.05;;;25.50;57.10;;;;;;5053389;28;20223;-79
2023/09/09 07:33:06;;;;;;;9.73;8.73;;;25.50;57.00;;;;;;5038009;28;20253;-79
2023/09/09 07:35:35;;;;;;;10.13;8.98;;;25.60;57.50;;;;;;5053494;28;20241;-79
2023/09/09 07:38:02;;;;;;;10.45;9.02;;;25.60;56.80;;;;;;5053837;28;20606;-79
2023/09/09 07:40:31;;;;;;;9.05;8.25;;;25.70;56.50;;;;;;5036368;28;20219;-79
2023/09/09 07:42:58;;;;;;;11.05;9.55;;;25.80;56.40;;;;;;5053344;28;20232;-79
2023/09/09 07:45:26;;;;;;;9.63;8.63;;;25.80;56.90;;;;;;5053911;28;20205;-79
2023/09/09 07:47:53;;;;;;;9.85;8.88;;;25.90;56.60;;;;;;5053493;28;20234;-79
2023/09/09 07:50:20;;;;;;;9.43;8.55;;;25.90;56.60;;;;;;5037098;28;20215;-79
2023/09/09 07:52:47;;;;;;;9.90;8.95;;;26.00;56.10;;;;;;5053652;28;20206;-79
2023/09/09 07:55:14;;;;;;;10.10;9.20;;;26.00;56.70;;;;;;5053339;28;20261;-80
2023/09/09 07:57:42;;;;;;;9.10;8.20;;;26.10;57.00;;;;;;5053344;28;20191;-80
2023/09/09 08:00:10;;;;;;;9.23;8.43;;;26.10;56.20;;;;;;5054981;28;20211;-80
2023/09/09 08:02:40;;;;;;;10.10;9.10;;;26.20;56.50;;;;;;5055095;28;20190;-80
2023/09/09 08:05:09;;;;;;;9.38;8.48;;;26.20;56.50;;;;;;5054338;28;20203;-80
2023/09/09 08:07:36;;;;;;;8.90;8.10;;;26.20;55.60;;;;;;5053988;28;20203;-80
2023/09/09 08:10:03;;;;;;;8.85;7.93;;;26.30;55.00;;;;;;5055253;28;20253;-80
2023/09/09 08:12:30;;;;;;;9.20;8.30;;;26.40;54.40;;;;;;5049563;28;20289;-80
2023/09/09 08:15:09;;;;;;;9.40;7.72;;;26.50;54.80;;;;;;5054455;28;20210;-80
2023/09/09 08:17:38;;;;;;;8.70;7.95;;;26.60;54.40;;;;;;5053807;28;20570;-80
2023/09/09 08:20:07;;;;;;;8.63;7.78;;;26.60;53.90;;;;;;5053409;28;20301;-80
2023/09/09 08:22:34;;;;;;;9.35;8.40;;;26.70;54.00;;;;;;5053253;28;20293;-80
2023/09/09 08:25:02;;;;;;;8.93;8.02;;;26.70;54.20;;;;;;5053438;28;20561;-80
2023/09/09 08:27:29;;;;;;;8.10;7.43;;;26.80;54.00;;;;;;5053849;28;20213;-80
2023/09/09 08:29:56;;;;;;;8.80;7.93;;;26.80;53.80;;;;;;5053326;28;20255;-80
2023/09/09 08:32:25;;;;;;;8.43;7.65;;;26.90;53.80;;;;;;5053654;28;20637;-82
2023/09/09 08:34:52;;;;;;;8.63;7.82;;;26.90;53.70;;;;;;5054150;28;20271;-84
2023/09/09 08:37:19;;;;;;;9.18;8.18;;;26.90;53.70;;;;;;5040660;28;20320;-82
2023/09/09 08:39:46;;;;;;;8.75;8.05;;;27.00;53.60;;;;;;5057706;28;20684;-82
2023/09/09 08:42:19;;;;;;;8.70;7.90;;;27.00;53.60;;;;;;5058082;28;20203;-80
2023/09/09 08:44:52;;;;;;;8.75;8.02;;;27.10;53.50;;;;;;5058275;28;20194;-80
2023/09/09 08:47:19;;;;;;;9.10;8.30;;;27.10;53.40;;;;;;5057277;28;20209;-82
2023/09/09 08:49:49;;;;;;;9.73;8.27;;;27.10;53.30;;;;;;5057812;28;20215;-82
2023/09/09 08:52:19;;;;;;;8.45;7.65;;;27.20;53.30;;;;;;5057228;28;20285;-81
2023/09/09 08:54:46;;;;;;;8.38;7.68;;;27.20;53.30;;;;;;5057342;28;20673;-81
2023/09/09 08:57:13;;;;;;;9.35;8.52;;;27.20;53.20;;;;;;5031296;28;20284;-86
2023/09/09 08:59:41;;;;;;;8.32;7.43;;;27.20;52.90;;;;;;5039705;28;20223;-81
2023/09/09 09:02:09;;;;;;;8.68;7.88;;;27.20;52.90;;;;;;5056189;28;20217;-82
2023/09/09 09:04:38;;;;;;;8.55;7.75;;;27.30;52.90;;;;;;5056104;28;20252;-82
2023/09/09 09:07:09;;;;;;;8.90;8.07;;;27.30;52.80;;;;;;5057067;28;20248;-83
2023/09/09 09:09:37;;;;;;;8.82;7.95;;;27.30;52.60;;;;;;5057158;28;20225;-83
2023/09/09 09:12:05;;;;;;;8.60;7.80;;;27.40;52.70;;;;;;5057347;28;20206;-82
2023/09/09 09:14:31;;;;;;;8.63;7.90;;;27.40;52.60;;;;;;5057495;28;20218;-85
2023/09/09 09:16:59;;;;;;;8.88;8.00;;;27.40;52.70;;;;;;5057797;28;20198;-84
2023/09/09 09:19:27;;;;;;;8.70;8.00;;;27.40;52.70;;;;;;5058935;28;20238;-86
2023/09/09 09:21:54;;;;;;;9.23;7.90;;;27.40;52.80;;;;;;5058063;28;20244;-86
2023/09/09 09:24:24;;;;;;;9.07;8.23;;;27.40;52.70;;;;;;5040398;28;20208;-84
2023/09/09 09:26:51;;;;;;;9.35;8.43;;;27.40;52.70;;;;;;5056778;28;20260;-86
2023/09/09 09:29:18;;;;;;;9.45;8.55;;;27.40;52.70;;;;;;5054885;28;20214;-85
2023/09/09 09:31:51;;;;;;;10.73;9.00;;;27.50;53.10;;;;;;5055775;28;20198;-83
2023/09/09 09:34:19;;;;;;;9.90;8.88;;;27.50;52.80;;;;;;5056198;28;20301;-84
2023/09/09 09:36:47;;;;;;;10.00;9.00;;;27.50;53.00;;;;;;5055982;28;20649;-83
2023/09/09 09:39:15;;;;;;;9.65;8.73;;;27.40;53.10;;;;;;5056169;28;20219;-83
2023/09/09 09:41:44;;;;;;;10.07;9.07;;;27.50;53.50;;;;;;5055809;28;20214;-83
2023/09/09 09:44:18;;;;;;;9.73;8.82;;;27.50;53.70;;;;;;5056554;28;20244;-82
2023/09/09 09:46:58;;;;;;;10.45;9.35;;;27.50;53.90;;;;;;5056148;28;20202;-82
2023/09/09 09:49:35;;;;;;;10.68;9.60;;;27.50;54.20;;;;;;5055445;28;20359;-82
2023/09/09 09:52:02;;;;;;;11.32;10.18;;;27.50;54.10;;;;;;5055597;28;20629;-81
2023/09/09 09:54:29;;;;;;;10.70;9.63;;;27.60;54.20;;;;;;5039305;28;20221;-83
2023/09/09 09:56:59;;;;;;;11.38;9.38;;;27.50;54.10;;;;;;5055570;28;20218;-82
2023/09/09 09:59:27;;;;;;;10.77;9.73;;;27.60;54.20;;;;;;5055575;28;20302;-81
2023/09/09 10:01:55;;;;;;;11.15;10.07;;;27.60;54.00;;;;;;5055621;28;20606;-81
2023/09/09 10:04:22;;;;;;;11.73;10.73;;;27.60;54.40;;;;;;5055828;28;20195;-80
2023/09/09 10:06:48;;;;;;;11.00;9.90;;;27.60;54.70;;;;;;5055600;28;20195;-82
2023/09/09 10:09:19;;;;;;;11.68;10.57;;;27.50;54.50;;;;;;5055211;28;20693;-81
2023/09/09 10:11:55;;;;;;;12.15;10.43;;;27.50;54.90;;;;;;5055476;28;20195;-81
2023/09/09 10:14:25;;;;;;;17.35;15.65;;;27.50;55.00;;;;;;5056510;28;20211;-80
2023/09/09 10:16:53;;;;;;;13.05;11.65;;;27.40;54.90;;;;;;5055558;28;20191;-80
2023/09/09 10:19:20;;;;;;;9.98;9.00;;;27.40;54.40;;;;;;5055611;28;20305;-80
2023/09/09 10:21:48;;;;;;;9.95;8.95;;;27.50;53.50;;;;;;5055549;28;20202;-79
2023/09/09 10:24:16;;;;;;;9.52;8.63;;;27.40;53.20;;;;;;5055422;28;20259;-80
2023/09/09 10:26:43;;;;;;;9.38;8.48;;;27.50;53.50;;;;;;5107597;22;20701;-81
2023/09/09 10:29:10;;;;;;;9.45;8.55;;;27.60;53.40;;;;;;5036491;28;20646;-80
2023/09/09 10:31:38;;;;;;;10.18;8.68;;;27.70;53.60;;;;;;5036324;28;20199;-80
2023/09/09 10:34:05;;;;;;;9.18;8.23;;;27.70;54.50;;;;;;5035170;28;20202;-81
2023/09/09 10:36:33;;;;;;;9.55;8.65;;;27.70;53.70;;;;;;5035278;28;20646;-81
2023/09/09 10:39:00;;;;;;;10.10;8.80;;;27.70;53.60;;;;;;5036528;28;20310;-81
2023/09/09 10:41:27;;;;;;;8.82;7.93;;;27.70;53.50;;;;;;5020876;28;20260;-81
2023/09/09 10:43:54;;;;;;;8.90;8.10;;;27.70;53.50;;;;;;5019824;28;20199;-80
2023/09/09 10:46:33;;;;;;;9.75;8.50;;;27.70;53.50;;;;;;5036400;28;20192;-80
2023/09/09 10:49:03;;;;;;;8.57;7.78;;;27.60;53.50;;;;;;5035849;28;20282;-80
2023/09/09 10:51:31;;;;;;;9.07;8.27;;;27.60;53.60;;;;;;5036190;28;20195;-80
2023/09/09 10:54:08;;;;;;;10.02;8.95;;;27.60;53.60;;;;;;5036119;28;20195;-80
2023/09/09 10:56:36;;;;;;;9.00;8.20;;;27.40;53.70;;;;;;5035911;28;20749;-80
2023/09/09 10:59:15;;;;;;;9.05;8.25;;;27.40;53.80;;;;;;5034790;28;20698;-80
2023/09/09 11:01:43;;;;;;;9.27;8.43;;;27.30;53.90;;;;;;5035635;28;20257;-80
2023/09/09 11:04:20;;;;;;;9.40;8.50;;;27.30;53.90;;;;;;5035455;28;20696;-80
2023/09/09 11:07:07;;;;;;;8.75;7.95;;;27.30;54.00;;;;;;5036010;28;20191;-80
2023/09/09 11:09:34;;;;;;;8.57;7.68;;;27.30;54.00;;;;;;5034999;28;20223;-80
2023/09/09 11:12:13;;;;;;;8.35;7.65;;;27.30;54.00;;;;;;5034753;28;20573;-80
2023/09/09 11:14:45;;;;;;;8.27;7.50;;;27.20;54.00;;;;;;5051650;28;20215;-80
2023/09/09 11:17:13;;;;;;;8.57;7.72;;;27.20;54.00;;;;;;5019160;28;20199;-81
2023/09/09 11:19:42;;;;;;;9.35;8.13;;;27.20;54.00;;;;;;5035073;28;20242;-81
2023/09/09 11:22:10;;;;;;;8.50;7.70;;;27.20;54.20;;;;;;5036673;28;20263;-81
2023/09/09 11:24:37;;;;;;;8.32;7.53;;;27.10;54.10;;;;;;5052410;28;20268;-81
2023/09/09 11:27:05;;;;;;;7.53;6.90;;;27.10;54.20;;;;;;5052660;28;20207;-81
2023/09/09 11:29:32;;;;;;;8.48;7.55;;;27.10;54.20;;;;;;5053554;28;20226;-81
2023/09/09 11:31:58;;;;;;;7.93;7.30;;;27.10;54.30;;;;;;5040774;28;20254;-81
2023/09/09 11:34:30;;;;;;;7.93;7.20;;;27.10;54.20;;;;;;5038445;28;20187;-81
2023/09/09 11:36:59;;;;;;;8.20;7.50;;;27.10;54.20;;;;;;5035589;28;20207;-81
2023/09/09 11:39:26;;;;;;;7.47;6.88;;;27.10;54.20;;;;;;5034884;28;20211;-80
2023/09/09 11:41:53;;;;;;;8.00;7.28;;;27.10;54.10;;;;;;5034682;28;20199;-80
2023/09/09 11:44:20;;;;;;;7.60;6.90;;;27.10;54.20;;;;;;5034139;28;20199;-81
2023/09/09 11:46:48;;;;;;;8.10;7.40;;;27.10;54.20;;;;;;5036067;28;20249;-81
2023/09/09 11:49:16;;;;;;;7.68;7.03;;;27.10;54.20;;;;;;5034176;28;20223;-81
2023/09/09 11:51:43;;;;;;;7.97;7.25;;;27.10;54.00;;;;;;5034444;28;20270;-81
2023/09/09 11:54:14;;;;;;;7.25;6.65;;;27.10;54.10;;;;;;5035713;28;20198;-82
2023/09/09 11:56:41;;;;;;;7.15;6.60;;;27.10;54.10;;;;;;5037225;28;20218;-81
2023/09/09 11:59:08;;;;;;;7.05;6.40;;;27.10;54.00;;;;;;5037454;28;20222;-81
2023/09/09 12:01:40;;;;;;;7.35;6.65;;;27.10;54.00;;;;;;5037149;28;20196;-81
2023/09/09 12:04:08;;;;;;;7.38;6.78;;;27.10;54.00;;;;;;5037120;28;20195;-81
2023/09/09 12:06:35;;;;;;;7.40;6.70;;;27.10;54.10;;;;;;5037178;28;20196;-81
2023/09/09 12:09:05;;;;;;;7.60;6.90;;;27.10;54.00;;;;;;5036494;28;20277;-81
2023/09/09 12:11:34;;;;;;;7.32;6.63;;;27.10;54.00;;;;;;5033551;28;20203;-81
2023/09/09 12:14:01;;;;;;;7.25;6.55;;;27.10;54.10;;;;;;5034736;28;20195;-81
2023/09/09 12:16:29;;;;;;;7.18;6.57;;;27.10;54.10;;;;;;5034468;28;20625;-81
2023/09/09 12:18:56;;;;;;;7.22;6.55;;;27.00;54.10;;;;;;5034760;28;20253;-81
2023/09/09 12:21:23;;;;;;;7.40;6.80;;;27.10;54.10;;;;;;5034332;28;20200;-81
2023/09/09 12:23:50;;;;;;;7.95;6.85;;;27.00;54.20;;;;;;5034342;28;20222;-81
2023/09/09 12:26:18;;;;;;;6.78;6.18;;;27.00;54.20;;;;;;5034255;28;20204;-81
2023/09/09 12:29:04;;;;;;;7.13;6.43;;;27.00;54.20;;;;;;5033742;28;20204;-81
2023/09/09 12:31:32;;;;;;;7.55;6.78;;;27.00;54.20;;;;;;5035661;28;20210;-81
2023/09/09 12:33:59;;;;;;;7.38;6.68;;;26.90;54.10;;;;;;5033779;28;20200;-81
2023/09/09 12:36:26;;;;;;;8.00;6.82;;;27.00;54.20;;;;;;5036297;28;20222;-81
2023/09/09 12:38:53;;;;;;;7.45;6.55;;;27.00;54.30;;;;;;5034615;28;20709;-81
2023/09/09 12:41:21;;;;;;;7.13;6.40;;;26.90;54.20;;;;;;5022903;28;20199;-81
2023/09/09 12:43:52;;;;;;;6.88;6.28;;;26.90;54.30;;;;;;5036517;28;20218;-81
2023/09/09 12:46:19;;;;;;;7.03;6.32;;;27.00;54.30;;;;;;5036140;28;20192;-81
2023/09/09 12:48:52;;;;;;;6.65;6.05;;;26.90;54.30;;;;;;5034960;28;20226;-80
2023/09/09 12:51:19;;;;;;;7.15;6.32;;;26.90;54.30;;;;;;5033949;28;20196;-80